Uniondale, New York
Current Conditions -  °F | °C
As of 12:53 AM on Tuesday 27 Jan 2015 (Local Time) from KFRG Reporting Station
Haze Haze  
Wind Chill: 10°   Ceiling: 1000
Heat Index: 25°   Visibility: 0.75mi
Dew Point: 21°   Wind: 22mph
Humidity: 85%   Direction: 30°NNE
Pressure: 29.64"   Gusts: 37mph
Location:  40.72°N, 73.59°W
Report Text: KFRG 270553Z AUTO 03019G32KT 3/4SM BR VV010 M04/M06 A2964 RMK AO2 PK WND 03033/0507 SFC VIS 1 SLP036 60002 T10391061 11028 21039 56023 PWINO FZRANO $
Loading
Personal Weather Stations






























Interactive Weather Map New forecast layout! Learn more

10-Day Weather Forecast

Advertisements
Track Severe Weather on mobile